Main page
METAR-TAF:

METAR-TAF

Airports :

Vitoria Airport

Vitoria, Spain

latitude: 42-53N, longitude: 002-43W, elevation: 513 m

Current weather observation

The report was made 28 minutes ago, at 01:30 UTC
Wind 5 kt from the Southeast, varying between East and Southwest
Temperature 10°C
Humidity 76%
Pressure 1006 hPa
Visibility 10 km or more
Few clouds at a height of 1000 ft
Broken clouds at a height of 2300 ft

METAR: LEVT 190130Z 14005KT 080V230 9999 FEW010 BKN023 10/06 Q1006

Time: 02:58 (01:58 UTC)

Forecast

The report was made 2 hours and 23 minutes ago, at 23:35 UTC
Forecast valid from 19 at 00 UTC to 19 at 24 UTC
Wind 6 kt from the East/Southeast
Visibility 10 km or more
Broken clouds at a height of 2500 ft
Temporary
from 19 at 12 UTC to 19 at 19 UTC
Wind 11 kt from the North/Northeast
Probability 40% :
Temporary
from 19 at 21 UTC to 19 at 24 UTC
Broken clouds at a height of 1000 ft
rain

TAF: LEVT 182335Z 1900/1924 12006KT 9999 BKN025 TX14/1914Z TN04/1907Z TEMPO 1912/1919 02011KT PROB40 TEMPO 1921/1924 RA BKN010

Weather observations and forecasts of more than 4000 airports (METAR and TAF reports).

The available stations are represented by yellow and red dots on the map.

Hover mouse over dot to see the name of the station.

Then click to see weather observations and forecasts.

To change the map : click on the green buttons with a black cross to zoom in, on the green button with a dash to zoom out, or on the green arrows for adjacent maps.


METAR-TAF: